Pagrindinis puslapis
METAR-TAF:

METAR-TAF

Oro uostai :

Ringkiobingas-Skjern, Danija

platuma: 56-00N, ilguma: 008-21E, Aukštis: 5 m

Dabartinis oras

Ataskaita buvo paskelbta 20 valandos ir 29 minutes, ne 19:50 UTC
Vėjas 12 kt iš Pietvakarių
Temperatūra 9°C
Drėgmė 100%
Slėgis 992 hPa
Matomumas: 6000 m
Išsisklaidę debesys ne aukštis 500 ft
Su prošvaistėmis ne aukštis 1000 ft

METAR: EKVJ 061950Z 22012KT 6000 SCT005 BKN010 09/09 Q0992

Laikas: 17:19 (16:19 UTC)

Prognozė

Ataskaita buvo paskelbta 21 valandos ir 54 minutes, ne 18:25 UTC
Prognozė galioja nuo 06 metu 18 UTC su 06 metu 21 UTC
Vėjas 15 kt iš Pietvakarių su gūsio iki 25 kt
Matomumas: 5000 m
Su prošvaistėmis ne aukštis 800 ft
lietus, dulksna, rūkana
Laikinai
nuo 06 metu 18 UTC su 06 metu 21 UTC
Matomumas: 2500 m
Su prošvaistėmis ne aukštis 300 ft
Išsisklaidę debesys ne aukštis 1500 ft, Liūtiniai kamuoliniai debesys.
lietus, dulksna

TAF: EKVJ 061825Z 0618/0621 23015G25KT 5000 -RADZ BR BKN008 TEMPO 0618/0621 2500 RADZ BKN003 SCT015CB

Orai ataskaitas ir orų prognozės (METAR, TAF).

turimą stotys yra geltonos ir raudonos taškus žemėlapyje.

Perkelti pele per norėdami pamatyti stoties vardą.

Tada spustelėkite, norėdami matyti oro stebėjimo ir prognozės.

Norėdami pakeisti žemėlapį: spustelėkite ant žalios mygtukų su juodo kryžiaus žemyn,; žalią mygtuką su brūkšneliu, jei norite nutolinti; arba žalių rodyklių gretimoms žemėlapius.


METAR-TAF: